Time;durP1;ratioP1;P1;durP2;ratioP2;P2;SDS_P1;SDS_P2;PMS_P1;PMS_P2;Temp;Humidity;BMP_temperature;BMP_pressure;BME280_temperature;BME280_humidity;BME280_pressure;Samples;Min_cycle;Max_cycle;Signal;HPM_P1;HPM_P2
2022/07/21 00:02:18;;;;;;;8.35;3.35;;;23.40;55.00;;;;;;5028266;28;20057;-67
2022/07/21 00:04:44;;;;;;;9.82;3.95;;;23.40;55.10;;;;;;5026182;28;20029;-67
2022/07/21 00:07:10;;;;;;;10.32;3.63;;;23.40;55.30;;;;;;5029308;28;20420;-67
2022/07/21 00:09:35;;;;;;;9.15;3.92;;;23.40;55.50;;;;;;5027193;28;20037;-67
2022/07/21 00:12:03;;;;;;;7.40;3.30;;;23.30;55.50;;;;;;5024426;28;20038;-67
2022/07/21 00:14:29;;;;;;;7.45;3.15;;;23.30;55.60;;;;;;5023098;28;20044;-67
2022/07/21 00:16:55;;;;;;;8.07;3.55;;;23.30;55.50;;;;;;5028638;28;20025;-67
2022/07/21 00:19:21;;;;;;;9.93;3.70;;;23.30;55.50;;;;;;5027797;28;20036;-67
2022/07/21 00:21:47;;;;;;;9.05;3.60;;;23.20;55.50;;;;;;5026422;28;20032;-67
2022/07/21 00:24:13;;;;;;;11.02;3.50;;;23.20;55.50;;;;;;5022279;28;20104;-67
2022/07/21 00:26:39;;;;;;;7.97;3.40;;;23.10;55.60;;;;;;5025405;28;20033;-67
2022/07/21 00:29:05;;;;;;;9.43;3.58;;;23.10;55.70;;;;;;5018838;28;20358;-67
2022/07/21 00:31:30;;;;;;;9.15;3.80;;;23.10;55.90;;;;;;5018129;28;20037;-67
2022/07/21 00:33:56;;;;;;;8.82;3.70;;;23.00;55.90;;;;;;5021906;28;20022;-67
2022/07/21 00:36:22;;;;;;;9.55;3.33;;;23.00;56.00;;;;;;5023224;28;20509;-67
2022/07/21 00:38:48;;;;;;;9.00;3.83;;;23.00;56.20;;;;;;5022778;28;20443;-67
2022/07/21 00:41:14;;;;;;;8.63;3.55;;;22.90;56.40;;;;;;5025256;28;20037;-67
2022/07/21 00:43:40;;;;;;;8.77;3.55;;;22.90;56.50;;;;;;5015315;28;20067;-67
2022/07/21 00:46:05;;;;;;;7.47;3.50;;;22.90;56.50;;;;;;5022298;28;20533;-67
2022/07/21 00:48:31;;;;;;;9.23;3.40;;;22.90;57.20;;;;;;5021344;28;20100;-67
2022/07/21 00:50:57;;;;;;;10.75;3.45;;;22.90;56.60;;;;;;5023040;28;20021;-67
2022/07/21 00:53:23;;;;;;;7.63;3.50;;;22.80;56.60;;;;;;5016658;28;20091;-67
2022/07/21 00:55:49;;;;;;;9.43;3.58;;;22.80;56.70;;;;;;5019594;28;20041;-67
2022/07/21 00:58:14;;;;;;;10.40;4.03;;;22.80;56.70;;;;;;5019409;28;20071;-67
2022/07/21 01:00:40;;;;;;;9.88;3.53;;;22.70;56.70;;;;;;5022470;28;20100;-67
2022/07/21 01:03:07;;;;;;;9.00;3.42;;;22.70;56.90;;;;;;5024114;28;20033;-67
2022/07/21 01:05:33;;;;;;;8.90;3.50;;;22.70;57.10;;;;;;5021615;28;20064;-67
2022/07/21 01:08:02;;;;;;;8.80;3.65;;;22.70;57.20;;;;;;5023415;28;20104;-67
2022/07/21 01:10:29;;;;;;;12.63;3.72;;;22.70;57.20;;;;;;5021444;28;20655;-67
2022/07/21 01:12:56;;;;;;;9.18;3.75;;;22.70;57.40;;;;;;5024865;28;20492;-67
2022/07/21 01:15:23;;;;;;;12.07;4.10;;;22.70;57.50;;;;;;5021102;28;20025;-67
2022/07/21 01:17:49;;;;;;;8.65;3.90;;;22.70;57.50;;;;;;5022905;28;20071;-67
2022/07/21 01:20:18;;;;;;;9.38;3.90;;;22.70;57.60;;;;;;5020358;28;20061;-67
2022/07/21 01:22:47;;;;;;;9.50;3.58;;;22.70;57.70;;;;;;5020953;28;20025;-67
2022/07/21 01:25:13;;;;;;;10.98;3.75;;;22.70;57.80;;;;;;5021180;28;20032;-67
2022/07/21 01:27:39;;;;;;;10.02;3.67;;;22.80;57.80;;;;;;5019740;28;20120;-67
2022/07/21 01:30:08;;;;;;;11.55;3.97;;;22.80;57.70;;;;;;5029786;28;20025;-67
2022/07/21 01:32:35;;;;;;;10.35;3.75;;;22.80;57.80;;;;;;5035719;28;20028;-67
2022/07/21 01:35:02;;;;;;;11.30;3.78;;;22.80;57.80;;;;;;5036408;28;20113;-68
2022/07/21 01:37:29;;;;;;;9.23;3.90;;;22.80;57.80;;;;;;5039859;28;20028;-67
2022/07/21 01:42:39;;;;;;;8.85;3.80;;;22.80;57.80;;;;;;5038474;28;20036;-67
2022/07/21 01:45:05;;;;;;;11.90;4.05;;;22.80;57.90;;;;;;5026129;28;20428;-67
2022/07/21 01:47:32;;;;;;;8.82;3.95;;;22.80;58.00;;;;;;5031207;28;20178;-67
2022/07/21 01:49:57;;;;;;;10.02;3.90;;;22.80;58.10;;;;;;5032686;28;20029;-67
2022/07/21 01:52:23;;;;;;;12.02;4.47;;;22.80;58.10;;;;;;5026546;28;20083;-67
2022/07/21 01:54:49;;;;;;;8.38;4.00;;;22.80;58.20;;;;;;5025198;28;20118;-67
2022/07/21 01:57:15;;;;;;;12.48;4.03;;;22.80;58.20;;;;;;5023118;28;20032;-67
2022/07/21 01:59:41;;;;;;;9.57;3.80;;;22.80;58.30;;;;;;5024277;28;20022;-67
2022/07/21 02:02:07;;;;;;;11.93;3.70;;;22.70;58.40;;;;;;5024506;28;20458;-67
2022/07/21 02:04:34;;;;;;;10.73;4.07;;;22.80;58.50;;;;;;5025901;28;20036;-67
2022/07/21 02:07:01;;;;;;;11.95;4.22;;;22.70;58.70;;;;;;5025060;28;20033;-67
2022/07/21 02:09:27;;;;;;;10.07;4.05;;;22.70;58.80;;;;;;5024562;28;20029;-67
2022/07/21 02:11:53;;;;;;;11.25;4.65;;;22.70;59.90;;;;;;5025688;28;20068;-67
2022/07/21 02:14:19;;;;;;;9.93;4.45;;;22.70;58.90;;;;;;5027020;28;20029;-67
2022/07/21 02:16:44;;;;;;;9.00;4.07;;;22.70;58.90;;;;;;5022920;28;20083;-67
2022/07/21 02:19:10;;;;;;;9.35;3.92;;;22.60;58.90;;;;;;5023101;28;20025;-68
2022/07/21 02:21:36;;;;;;;10.05;4.03;;;22.60;59.10;;;;;;5025360;28;20034;-67
2022/07/21 02:24:02;;;;;;;12.75;4.03;;;22.60;59.20;;;;;;5025163;28;20098;-67
2022/07/21 02:26:28;;;;;;;10.43;4.00;;;22.60;59.20;;;;;;5019943;28;20378;-67
2022/07/21 02:28:54;;;;;;;9.40;4.03;;;22.50;59.20;;;;;;5024524;28;20087;-67
2022/07/21 02:31:20;;;;;;;11.07;3.90;;;22.50;59.30;;;;;;5027465;28;20025;-68
2022/07/21 02:33:45;;;;;;;8.57;4.00;;;22.50;59.50;;;;;;5019227;28;20034;-68
2022/07/21 02:36:11;;;;;;;9.88;4.40;;;22.50;59.60;;;;;;5016400;28;20113;-67
2022/07/21 02:38:37;;;;;;;10.23;4.00;;;22.50;59.80;;;;;;5020219;28;20393;-67
2022/07/21 02:41:03;;;;;;;10.93;4.25;;;22.50;59.80;;;;;;5022144;28;20029;-67
2022/07/21 02:43:29;;;;;;;10.70;4.32;;;22.40;59.90;;;;;;5022917;28;20061;-67
2022/07/21 02:45:54;;;;;;;11.40;4.15;;;22.40;60.00;;;;;;5024653;28;20079;-67
2022/07/21 02:48:20;;;;;;;12.52;4.30;;;22.40;60.10;;;;;;5023460;28;20401;-67
2022/07/21 02:50:46;;;;;;;11.35;4.20;;;22.30;60.20;;;;;;5023231;28;20630;-67
2022/07/21 02:53:17;;;;;;;10.20;4.10;;;22.30;60.30;;;;;;5016468;28;20029;-67
2022/07/21 02:55:44;;;;;;;9.60;3.88;;;22.20;60.40;;;;;;5022442;28;20141;-67
2022/07/21 02:58:21;;;;;;;12.77;4.03;;;22.10;60.30;;;;;;5021267;28;20030;-67
2022/07/21 03:00:52;;;;;;;10.82;4.38;;;22.10;60.40;;;;;;5023386;28;20095;-67
2022/07/21 03:03:20;;;;;;;8.90;4.10;;;22.10;60.50;;;;;;5025049;28;20126;-67
2022/07/21 03:05:46;;;;;;;10.40;4.05;;;22.00;60.60;;;;;;5021764;28;20491;-67
2022/07/21 03:08:12;;;;;;;8.27;3.90;;;22.00;60.70;;;;;;5024491;28;20060;-67
2022/07/21 03:10:39;;;;;;;12.52;4.00;;;21.90;60.70;;;;;;5024787;28;20052;-67
2022/07/21 03:13:05;;;;;;;10.68;4.00;;;21.90;60.70;;;;;;5019792;28;20466;-67
2022/07/21 03:15:31;;;;;;;9.90;4.20;;;21.90;60.70;;;;;;5021018;28;20370;-67
2022/07/21 03:17:58;;;;;;;9.23;3.97;;;21.90;60.70;;;;;;5020000;28;20104;-67
2022/07/21 03:20:28;;;;;;;9.88;4.10;;;21.80;60.40;;;;;;5020568;28;20108;-67
2022/07/21 03:22:54;;;;;;;9.85;3.90;;;21.80;60.20;;;;;;5022536;28;20055;-67
2022/07/21 03:25:20;;;;;;;8.18;4.00;;;21.80;60.10;;;;;;5033207;28;20025;-67
2022/07/21 03:27:47;;;;;;;8.27;4.07;;;21.80;60.10;;;;;;5025919;28;20047;-67
2022/07/21 03:30:14;;;;;;;11.43;4.15;;;21.70;60.30;;;;;;5028670;28;20076;-67
2022/07/21 03:32:40;;;;;;;11.48;4.07;;;21.70;60.50;;;;;;5020259;28;20032;-67
2022/07/21 03:35:08;;;;;;;10.95;3.92;;;21.60;60.50;;;;;;5027107;28;20029;-67
2022/07/21 03:37:41;;;;;;;9.60;3.92;;;21.60;60.60;;;;;;5027562;28;20492;-67
2022/07/21 03:40:07;;;;;;;9.50;3.83;;;21.60;60.50;;;;;;5024144;28;20030;-67
2022/07/21 03:42:33;;;;;;;6.78;3.50;;;21.50;60.00;;;;;;5026618;28;20058;-68
2022/07/21 03:44:58;;;;;;;7.35;3.45;;;21.40;59.90;;;;;;5026829;28;20083;-67
2022/07/21 03:47:24;;;;;;;11.82;4.25;;;21.30;59.70;;;;;;5027793;28;20033;-67
2022/07/21 03:49:50;;;;;;;9.55;4.20;;;21.20;59.90;;;;;;5027298;28;20108;-67
2022/07/21 03:52:15;;;;;;;12.60;4.13;;;21.10;60.30;;;;;;5029884;28;20029;-67
2022/07/21 03:54:41;;;;;;;9.43;3.90;;;21.10;60.80;;;;;;5032707;28;20049;-67
2022/07/21 03:57:07;;;;;;;11.13;3.40;;;21.10;61.00;;;;;;5027407;28;20041;-68
2022/07/21 03:59:32;;;;;;;8.40;3.95;;;21.10;61.20;;;;;;5025832;28;20040;-67
2022/07/21 04:01:58;;;;;;;8.85;3.90;;;21.10;62.30;;;;;;5020321;28;20026;-67
2022/07/21 04:04:24;;;;;;;11.52;4.35;;;21.10;61.50;;;;;;5023867;28;20136;-67
2022/07/21 04:06:49;;;;;;;9.48;3.83;;;21.10;61.70;;;;;;5029732;28;20468;-68
2022/07/21 04:09:17;;;;;;;8.85;4.13;;;21.10;61.80;;;;;;5025670;28;20504;-68
2022/07/21 04:11:43;;;;;;;11.07;3.95;;;21.00;61.90;;;;;;5029306;28;20044;-68
2022/07/21 04:14:08;;;;;;;12.18;4.10;;;21.00;61.90;;;;;;5026265;28;20583;-67
2022/07/21 04:16:34;;;;;;;10.52;3.90;;;21.00;62.10;;;;;;5025648;28;20074;-67
2022/07/21 04:19:00;;;;;;;8.77;3.97;;;20.90;61.90;;;;;;5028462;28;20047;-67
2022/07/21 04:21:26;;;;;;;11.18;3.80;;;20.90;62.00;;;;;;5028290;28;20180;-67
2022/07/21 04:23:51;;;;;;;10.27;3.97;;;20.90;62.10;;;;;;5027955;28;20033;-67
2022/07/21 04:26:17;;;;;;;8.40;3.80;;;20.80;62.30;;;;;;5032661;28;20115;-67
2022/07/21 04:28:43;;;;;;;9.15;4.28;;;20.80;62.50;;;;;;5027870;28;20908;-67
2022/07/21 04:31:08;;;;;;;8.48;3.83;;;20.80;62.40;;;;;;5027021;28;20037;-67
2022/07/21 04:33:35;;;;;;;9.52;4.03;;;20.80;62.60;;;;;;5024872;28;20021;-68
2022/07/21 04:36:01;;;;;;;9.43;4.10;;;20.80;62.90;;;;;;5025648;28;20032;-67
2022/07/21 04:38:26;;;;;;;9.38;4.05;;;20.80;63.10;;;;;;5027093;28;20037;-68
2022/07/21 04:40:52;;;;;;;9.18;4.78;;;20.80;63.40;;;;;;5027366;28;20426;-67
2022/07/21 04:43:18;;;;;;;9.77;4.20;;;20.80;63.30;;;;;;5029400;28;20021;-67
2022/07/21 04:45:43;;;;;;;10.95;4.32;;;20.80;63.40;;;;;;5026875;28;20078;-67
2022/07/21 04:48:09;;;;;;;9.35;4.30;;;20.90;63.50;;;;;;5027304;28;20087;-67
2022/07/21 04:50:35;;;;;;;10.05;4.20;;;20.80;63.70;;;;;;5027741;28;20029;-67
2022/07/21 04:53:00;;;;;;;11.60;4.38;;;20.90;63.90;;;;;;5026756;28;20428;-68
2022/07/21 04:55:26;;;;;;;9.18;4.53;;;20.90;64.10;;;;;;5020945;28;20077;-70
2022/07/21 04:57:53;;;;;;;9.55;4.40;;;20.90;64.20;;;;;;5025684;28;20049;-69
2022/07/21 05:00:23;;;;;;;10.07;4.43;;;20.90;64.40;;;;;;5022644;28;20054;-68
2022/07/21 05:02:50;;;;;;;10.98;4.60;;;20.90;64.20;;;;;;5018296;28;20036;-69
2022/07/21 05:05:15;;;;;;;9.45;4.43;;;21.00;64.20;;;;;;5024326;28;20026;-70
2022/07/21 05:07:42;;;;;;;8.80;4.10;;;21.00;64.20;;;;;;5018966;28;20044;-69
2022/07/21 05:10:10;;;;;;;10.25;4.50;;;21.00;64.30;;;;;;5027495;28;20026;-70
2022/07/21 05:12:36;;;;;;;11.25;4.88;;;21.10;64.30;;;;;;5025931;28;20056;-71
2022/07/21 05:15:07;;;;;;;11.90;4.78;;;21.10;64.40;;;;;;5023221;28;20421;-68
2022/07/21 05:17:34;;;;;;;8.50;4.03;;;21.20;64.60;;;;;;5026132;28;20788;-70
2022/07/21 05:20:00;;;;;;;9.10;4.38;;;21.20;65.00;;;;;;5001229;28;20044;-68
2022/07/21 05:22:26;;;;;;;10.05;4.65;;;21.20;64.80;;;;;;5025259;28;20039;-68
2022/07/21 05:24:52;;;;;;;13.20;4.88;;;21.30;65.00;;;;;;5029265;28;20029;-69
2022/07/21 05:27:18;;;;;;;10.73;4.38;;;21.30;65.90;;;;;;5018812;28;20491;-68
2022/07/21 05:29:44;;;;;;;9.38;4.57;;;21.30;65.30;;;;;;5022864;28;20461;-69
2022/07/21 05:32:10;;;;;;;11.25;4.85;;;21.40;65.20;;;;;;5022639;28;20030;-70
2022/07/21 05:34:36;;;;;;;10.27;4.85;;;21.40;65.20;;;;;;5026852;28;20026;-69
2022/07/21 05:37:02;;;;;;;9.00;4.18;;;21.50;65.20;;;;;;5025930;28;20400;-69
2022/07/21 05:39:28;;;;;;;10.75;4.60;;;21.60;65.00;;;;;;5019029;28;20021;-69
2022/07/21 05:41:54;;;;;;;10.35;4.57;;;21.70;65.00;;;;;;5020143;28;20037;-69
2022/07/21 05:44:20;;;;;;;12.75;4.70;;;21.70;64.90;;;;;;5021222;28;20025;-69
2022/07/21 05:46:46;;;;;;;11.82;4.80;;;21.70;64.90;;;;;;5023373;28;20117;-69
2022/07/21 05:49:11;;;;;;;11.65;4.85;;;21.80;64.70;;;;;;5020665;28;20030;-69
2022/07/21 05:51:37;;;;;;;12.98;4.68;;;21.80;64.40;;;;;;5023428;28;20051;-69
2022/07/21 05:54:03;;;;;;;11.52;4.88;;;21.90;64.10;;;;;;5021864;28;20037;-69
2022/07/21 05:56:29;;;;;;;10.52;4.28;;;22.00;64.00;;;;;;5029799;28;20123;-69
2022/07/21 05:58:54;;;;;;;14.43;5.03;;;22.20;63.60;;;;;;5027114;28;20108;-69
2022/07/21 06:01:20;;;;;;;10.52;4.65;;;22.30;63.30;;;;;;5019601;28;20131;-69
2022/07/21 06:03:48;;;;;;;10.60;4.65;;;22.30;62.80;;;;;;5019547;28;20203;-69
2022/07/21 06:06:17;;;;;;;10.52;4.47;;;22.40;62.40;;;;;;5021060;28;20112;-69
2022/07/21 06:08:44;;;;;;;11.70;4.65;;;22.40;62.30;;;;;;5018387;28;20108;-69
2022/07/21 06:11:14;;;;;;;9.88;4.20;;;22.40;62.10;;;;;;5019847;28;20091;-69
2022/07/21 06:13:40;;;;;;;11.68;3.85;;;22.40;62.00;;;;;;5022509;28;20501;-69
2022/07/21 06:16:07;;;;;;;11.13;4.68;;;22.40;61.90;;;;;;5022844;28;20073;-69
2022/07/21 06:18:33;;;;;;;9.55;4.70;;;22.40;61.80;;;;;;5016462;28;20033;-68
2022/07/21 06:20:59;;;;;;;9.57;4.00;;;22.40;62.00;;;;;;5026551;28;20051;-68
2022/07/21 06:23:25;;;;;;;9.00;4.00;;;22.40;61.90;;;;;;5024934;28;20515;-68
2022/07/21 06:25:51;;;;;;;11.48;4.60;;;22.40;61.90;;;;;;5020635;28;20030;-68
2022/07/21 06:28:18;;;;;;;20.60;10.88;;;22.40;61.80;;;;;;5024179;28;21577;-68
2022/07/21 06:30:44;;;;;;;13.27;4.80;;;22.40;61.50;;;;;;5021038;28;20021;-68
2022/07/21 06:33:10;;;;;;;11.98;4.30;;;22.40;62.30;;;;;;5020195;28;20025;-69
2022/07/21 06:35:38;;;;;;;12.93;4.65;;;22.50;61.10;;;;;;5021462;28;20499;-69
2022/07/21 06:38:05;;;;;;;12.40;5.13;;;22.60;61.00;;;;;;5026645;28;20037;-68
2022/07/21 06:40:31;;;;;;;11.38;4.90;;;22.60;60.80;;;;;;5025511;28;20056;-68
2022/07/21 06:42:57;;;;;;;9.40;4.18;;;22.70;60.30;;;;;;5024881;28;20556;-68
2022/07/21 06:45:30;;;;;;;10.77;4.68;;;22.70;60.10;;;;;;5026850;28;20025;-68
2022/07/21 06:48:07;;;;;;;9.70;4.18;;;22.80;60.10;;;;;;5024461;28;20060;-68
2022/07/21 06:50:33;;;;;;;9.75;3.90;;;22.80;59.50;;;;;;5015676;28;20080;-69
2022/07/21 06:52:59;;;;;;;8.05;4.10;;;22.80;58.90;;;;;;5023661;28;20507;-69
2022/07/21 06:55:25;;;;;;;8.32;3.80;;;22.90;59.50;;;;;;5020703;28;20053;-68
2022/07/21 06:57:50;;;;;;;10.65;4.20;;;22.90;58.20;;;;;;5028839;28;20068;-69
2022/07/21 07:00:16;;;;;;;12.48;4.10;;;22.90;58.10;;;;;;5032100;28;20017;-69
2022/07/21 07:02:42;;;;;;;10.40;4.20;;;23.00;58.20;;;;;;5033359;28;20394;-69
2022/07/21 07:05:08;;;;;;;7.85;4.05;;;23.00;57.90;;;;;;5024265;28;20025;-68
2022/07/21 07:07:35;;;;;;;11.20;4.00;;;23.10;57.50;;;;;;5026285;28;20041;-68
2022/07/21 07:10:02;;;;;;;7.60;3.97;;;23.10;57.20;;;;;;5022059;28;20078;-69
2022/07/21 07:12:28;;;;;;;9.95;4.13;;;23.20;56.90;;;;;;5021237;28;20044;-68
2022/07/21 07:14:54;;;;;;;9.13;3.95;;;23.30;56.30;;;;;;5025239;28;20033;-69
2022/07/21 07:17:20;;;;;;;9.13;3.88;;;25.00;51.00;;;;;;5024689;28;20394;-68
2022/07/21 07:19:47;;;;;;;10.38;4.05;;;27.30;44.00;;;;;;5027087;28;20028;-69
2022/07/21 07:22:13;;;;;;;10.23;3.97;;;28.80;39.90;;;;;;5026334;28;20041;-69
2022/07/21 07:24:39;;;;;;;9.85;3.50;;;29.70;37.20;;;;;;5032215;28;20090;-69
2022/07/21 07:27:05;;;;;;;10.70;4.20;;;30.50;35.70;;;;;;5032202;28;20041;-69
2022/07/21 07:29:31;;;;;;;11.80;5.00;;;30.10;36.40;;;;;;5026703;28;20037;-69
2022/07/21 07:32:00;;;;;;;9.02;4.10;;;29.70;36.80;;;;;;5022402;28;20496;-69
2022/07/21 07:34:25;;;;;;;7.88;4.00;;;31.00;34.60;;;;;;5023089;28;20092;-69
2022/07/21 07:36:51;;;;;;;9.02;4.20;;;32.20;32.20;;;;;;5029843;28;20527;-69
2022/07/21 07:39:18;;;;;;;8.75;3.92;;;33.00;30.80;;;;;;5019382;28;20038;-69
2022/07/21 07:41:48;;;;;;;9.02;4.18;;;33.70;29.60;;;;;;5023931;28;20037;-69
2022/07/21 07:44:14;;;;;;;7.72;3.60;;;33.80;29.00;;;;;;5021396;28;20029;-69
2022/07/21 07:46:40;;;;;;;7.28;3.63;;;33.20;29.50;;;;;;5023593;28;20204;-69
2022/07/21 07:49:05;;;;;;;8.68;3.88;;;32.70;30.00;;;;;;5022064;28;20025;-69
2022/07/21 07:51:31;;;;;;;8.18;3.80;;;31.10;33.60;;;;;;5020220;28;20556;-68
2022/07/21 07:53:57;;;;;;;11.48;4.32;;;29.70;36.10;;;;;;5017624;28;20030;-69
2022/07/21 07:56:23;;;;;;;9.82;4.00;;;29.00;37.50;;;;;;5020584;28;20033;-69
2022/07/21 07:58:49;;;;;;;10.73;3.70;;;29.00;38.00;;;;;;5015907;28;20040;-69
2022/07/21 08:01:16;;;;;;;7.13;3.50;;;29.20;38.10;;;;;;5051959;28;20060;-69
2022/07/21 08:03:41;;;;;;;7.00;3.47;;;29.40;38.10;;;;;;5016386;28;20448;-69
2022/07/21 08:06:07;;;;;;;8.60;4.03;;;29.50;37.90;;;;;;5025980;28;20073;-69
2022/07/21 08:08:33;;;;;;;11.30;3.95;;;29.60;37.50;;;;;;5024159;28;20025;-69
2022/07/21 08:10:59;;;;;;;11.18;3.72;;;29.70;37.00;;;;;;5024372;28;20361;-69
2022/07/21 08:13:25;;;;;;;8.35;3.50;;;29.60;36.80;;;;;;5024640;28;20037;-68
2022/07/21 08:15:51;;;;;;;11.20;3.95;;;29.60;36.90;;;;;;5026543;28;20090;-68
2022/07/21 08:18:17;;;;;;;8.63;3.40;;;29.60;36.90;;;;;;5028050;28;20459;-68
2022/07/21 08:20:45;;;;;;;6.90;3.22;;;29.70;36.90;;;;;;5029245;28;20175;-68
2022/07/21 08:23:11;;;;;;;9.00;3.50;;;29.60;36.80;;;;;;5024699;28;20039;-68
2022/07/21 08:25:36;;;;;;;6.35;3.40;;;29.50;37.10;;;;;;5027515;28;20034;-68
2022/07/21 08:28:03;;;;;;;8.38;3.53;;;29.50;36.90;;;;;;5030501;28;20497;-68
2022/07/21 08:30:28;;;;;;;7.18;3.40;;;29.30;37.00;;;;;;5025519;28;20036;-68
2022/07/21 08:32:54;;;;;;;6.97;3.35;;;29.30;37.40;;;;;;5023310;28;20033;-68
2022/07/21 08:35:20;;;;;;;9.98;3.60;;;29.40;37.30;;;;;;5026247;28;20477;-68
2022/07/21 08:37:55;;;;;;;6.15;3.17;;;29.20;37.20;;;;;;5026365;28;20151;-69
2022/07/21 08:40:24;;;;;;;6.32;3.20;;;29.00;37.40;;;;;;5024121;28;20029;-68
2022/07/21 08:42:51;;;;;;;10.93;3.50;;;28.70;37.90;;;;;;5022976;28;20107;-68
2022/07/21 08:45:16;;;;;;;8.60;3.47;;;28.40;38.30;;;;;;5026115;28;20068;-68
2022/07/21 08:47:52;;;;;;;6.10;3.03;;;28.40;38.40;;;;;;5024273;28;20083;-68
2022/07/21 08:50:18;;;;;;;8.00;3.38;;;28.50;38.70;;;;;;5027294;28;20033;-68
2022/07/21 08:52:44;;;;;;;11.40;3.45;;;28.70;38.30;;;;;;5025388;28;20029;-68
2022/07/21 08:55:11;;;;;;;9.15;3.40;;;29.10;37.80;;;;;;5026053;28;20432;-68
2022/07/21 08:57:40;;;;;;;8.10;3.20;;;29.50;36.90;;;;;;5023939;28;20037;-69
2022/07/21 09:00:10;;;;;;;6.43;2.75;;;29.80;36.30;;;;;;5024589;28;20181;-68
2022/07/21 09:02:37;;;;;;;8.90;2.75;;;29.80;36.10;;;;;;5027272;28;20026;-68
2022/07/21 09:05:07;;;;;;;8.35;3.00;;;29.50;36.20;;;;;;5027961;28;20037;-68
2022/07/21 09:07:54;;;;;;;9.23;3.20;;;29.20;36.30;;;;;;5026838;28;20033;-68
2022/07/21 09:10:29;;;;;;;5.65;3.03;;;28.80;36.80;;;;;;5026741;28;20079;-68
2022/07/21 09:13:01;;;;;;;8.10;3.30;;;28.50;37.40;;;;;;5022457;28;20026;-68
2022/07/21 09:15:28;;;;;;;7.50;3.10;;;28.40;38.00;;;;;;5018355;28;20076;-68
2022/07/21 09:18:07;;;;;;;12.45;3.22;;;28.20;38.50;;;;;;5021688;28;20040;-68
2022/07/21 09:20:34;;;;;;;7.53;3.22;;;28.10;38.30;;;;;;5021137;28;20781;-68
2022/07/21 09:23:06;;;;;;;7.80;2.88;;;28.10;38.30;;;;;;5024336;28;20064;-67
2022/07/21 09:25:47;;;;;;;7.13;3.42;;;28.00;38.50;;;;;;5027359;28;20121;-68
2022/07/21 09:28:27;;;;;;;7.57;3.00;;;28.00;38.80;;;;;;5023804;28;20451;-68
2022/07/21 09:31:04;;;;;;;8.02;3.05;;;28.10;38.40;;;;;;5025758;28;20064;-68
2022/07/21 09:33:38;;;;;;;7.22;2.80;;;28.10;38.60;;;;;;5026958;28;20029;-68
2022/07/21 09:36:13;;;;;;;9.07;3.03;;;28.10;38.30;;;;;;5028047;28;20026;-68
2022/07/21 09:38:50;;;;;;;9.20;3.35;;;28.10;38.00;;;;;;5021502;28;20049;-68
2022/07/21 09:41:21;;;;;;;6.75;3.33;;;28.40;37.60;;;;;;5020884;28;20032;-68
2022/07/21 09:43:52;;;;;;;6.95;3.22;;;30.10;34.60;;;;;;5025032;28;20144;-69
2022/07/21 09:46:30;;;;;;;6.32;2.88;;;31.10;32.40;;;;;;5017851;28;20036;-69
2022/07/21 09:49:00;;;;;;;9.73;3.22;;;32.40;30.00;;;;;;5024380;28;20456;-69
2022/07/21 09:51:31;;;;;;;7.03;3.05;;;33.60;28.80;;;;;;5023087;28;20053;-69
2022/07/21 09:54:00;;;;;;;6.63;2.90;;;34.20;28.10;;;;;;5023011;28;20040;-68
2022/07/21 09:56:28;;;;;;;6.82;2.50;;;34.60;27.50;;;;;;5022646;28;20037;-69
2022/07/21 09:59:02;;;;;;;8.32;3.08;;;35.30;26.10;;;;;;5026791;28;20497;-69
2022/07/21 10:01:29;;;;;;;7.78;3.33;;;35.20;25.80;;;;;;5024797;28;20025;-69
2022/07/21 10:03:57;;;;;;;9.00;2.92;;;34.80;26.20;;;;;;5026070;28;20073;-69
2022/07/21 10:06:27;;;;;;;8.82;2.70;;;34.00;27.50;;;;;;5026392;28;20056;-69
2022/07/21 10:08:55;;;;;;;7.43;2.70;;;33.20;28.30;;;;;;5019588;28;20032;-68
2022/07/21 10:11:22;;;;;;;7.95;2.80;;;32.90;28.40;;;;;;5022942;28;20052;-69
2022/07/21 10:13:48;;;;;;;8.90;3.00;;;32.90;28.60;;;;;;5021892;28;20090;-68
2022/07/21 10:16:15;;;;;;;8.27;2.78;;;32.20;29.60;;;;;;5021128;28;20033;-68
2022/07/21 10:18:55;;;;;;;7.07;2.42;;;31.70;30.30;;;;;;5023540;28;20029;-68
2022/07/21 10:21:43;;;;;;;6.15;2.85;;;31.00;30.90;;;;;;5024209;28;20027;-68
2022/07/21 10:24:11;;;;;;;6.32;2.90;;;30.70;31.60;;;;;;5021216;28;20051;-68
2022/07/21 10:26:38;;;;;;;7.10;2.72;;;30.30;31.60;;;;;;5026339;28;20125;-68
2022/07/21 10:29:03;;;;;;;6.47;2.65;;;30.60;30.90;;;;;;5024464;28;20025;-68
2022/07/21 10:31:29;;;;;;;7.32;2.67;;;31.00;30.80;;;;;;5023880;28;20526;-68
2022/07/21 10:34:02;;;;;;;6.13;2.50;;;33.40;27.60;;;;;;5022093;28;20099;-69
2022/07/21 10:36:28;;;;;;;5.38;2.40;;;35.50;25.20;;;;;;5017821;28;20048;-69
2022/07/21 10:39:06;;;;;;;8.10;2.70;;;34.60;25.90;;;;;;5023077;28;20022;-69
2022/07/21 10:41:49;;;;;;;4.82;2.30;;;33.50;27.10;;;;;;5023982;28;20029;-70
2022/07/21 10:44:27;;;;;;;5.47;2.55;;;32.90;27.70;;;;;;5026476;28;20026;-71
2022/07/21 10:47:08;;;;;;;5.13;2.42;;;35.90;25.20;;;;;;5023677;28;20677;-73
2022/07/21 10:49:48;;;;;;;6.00;2.45;;;35.60;24.40;;;;;;5026166;28;20112;-73
2022/07/21 10:52:35;;;;;;;5.60;2.50;;;34.30;25.80;;;;;;5022007;28;20030;-71
2022/07/21 10:55:09;;;;;;;6.95;2.58;;;33.50;26.30;;;;;;5036386;28;20048;-71
2022/07/21 10:57:36;;;;;;;5.78;2.30;;;32.90;26.90;;;;;;5023201;28;20049;-73
2022/07/21 11:00:18;;;;;;;5.43;2.42;;;32.50;27.60;;;;;;5018949;28;20058;-74
2022/07/21 11:02:49;;;;;;;6.07;2.40;;;32.10;28.10;;;;;;5017790;28;20037;-74
2022/07/21 11:05:15;;;;;;;6.97;2.63;;;31.80;28.10;;;;;;5026366;28;20018;-72
2022/07/21 11:08:16;;;;;;;4.00;2.33;;;31.50;28.30;;;;;;5024673;28;20389;-73
2022/07/21 11:10:47;;;;;;;4.68;2.30;;;31.40;28.60;;;;;;5013245;28;29719;-73
2022/07/21 11:13:14;;;;;;;5.95;2.60;;;32.50;27.60;;;;;;5022635;28;20037;-71
2022/07/21 11:15:53;;;;;;;5.57;2.28;;;35.40;25.00;;;;;;5015667;28;20032;-72
2022/07/21 11:18:21;;;;;;;5.78;2.20;;;37.90;21.90;;;;;;5024683;28;20049;-72
2022/07/21 11:21:02;;;;;;;5.95;2.20;;;38.90;20.80;;;;;;5002764;28;20109;-73
2022/07/21 11:23:38;;;;;;;4.50;2.30;;;37.90;22.30;;;;;;5022299;28;20041;-71
2022/07/21 11:26:06;;;;;;;6.70;2.45;;;37.60;22.60;;;;;;5017348;28;20092;-73
2022/07/21 11:28:32;;;;;;;6.53;2.55;;;36.70;23.70;;;;;;5016207;28;20029;-72
2022/07/21 11:31:15;;;;;;;7.90;2.33;;;35.60;24.30;;;;;;5023224;28;20385;-72
2022/07/21 11:33:43;;;;;;;9.90;2.40;;;34.60;25.40;;;;;;5018905;28;20048;-72
2022/07/21 11:36:09;;;;;;;8.32;2.20;;;34.00;26.90;;;;;;5016135;28;20269;-72
2022/07/21 11:38:35;;;;;;;7.00;2.60;;;33.70;26.70;;;;;;5014096;28;20725;-72
2022/07/21 11:41:17;;;;;;;4.78;2.60;;;33.20;27.20;;;;;;5018621;28;20059;-72
2022/07/21 11:43:45;;;;;;;5.38;2.40;;;32.80;27.60;;;;;;5005138;28;20522;-72
2022/07/21 11:46:12;;;;;;;6.72;2.40;;;32.50;27.60;;;;;;5022813;28;20120;-72
2022/07/21 11:48:37;;;;;;;5.97;2.60;;;32.30;28.00;;;;;;5026407;28;20488;-72
2022/07/21 11:51:04;;;;;;;4.50;2.35;;;32.20;28.40;;;;;;5024820;28;20021;-72
2022/07/21 11:53:31;;;;;;;5.18;2.28;;;33.20;26.80;;;;;;5028629;28;20025;-72
2022/07/21 11:55:57;;;;;;;7.53;2.58;;;33.00;27.50;;;;;;5020921;28;20049;-72
2022/07/21 11:58:23;;;;;;;4.90;2.45;;;33.00;27.50;;;;;;5029583;28;20032;-72
2022/07/21 12:01:07;;;;;;;5.93;2.50;;;32.90;27.60;;;;;;5029750;28;20028;-72
2022/07/21 12:03:33;;;;;;;5.38;2.38;;;33.60;26.90;;;;;;5026848;28;20037;-73
2022/07/21 12:06:01;;;;;;;5.35;2.42;;;36.20;24.20;;;;;;5027472;28;20100;-73
2022/07/21 12:08:28;;;;;;;6.50;2.50;;;38.30;22.20;;;;;;5022638;28;20079;-73
2022/07/21 12:11:06;;;;;;;5.45;2.35;;;39.80;20.70;;;;;;5027686;28;20025;-74
2022/07/21 12:13:51;;;;;;;6.57;2.00;;;40.70;19.60;;;;;;5028717;28;20059;-74
2022/07/21 12:16:17;;;;;;;6.63;2.30;;;42.20;18.70;;;;;;5024525;28;20488;-74
2022/07/21 12:18:43;;;;;;;5.03;2.20;;;43.10;17.50;;;;;;5029033;28;20033;-73
2022/07/21 12:21:09;;;;;;;4.00;1.90;;;43.70;16.90;;;;;;5026293;28;20058;-74
2022/07/21 12:23:38;;;;;;;5.00;1.92;;;44.40;16.20;;;;;;5026692;28;20033;-74
2022/07/21 12:26:04;;;;;;;5.22;1.90;;;44.90;15.70;;;;;;5032577;28;20475;-74
2022/07/21 12:28:46;;;;;;;3.92;1.90;;;44.90;15.70;;;;;;5021572;28;20029;-74
2022/07/21 12:31:16;;;;;;;4.72;1.92;;;43.50;16.90;;;;;;5034012;28;20025;-74
2022/07/21 12:33:42;;;;;;;4.45;2.20;;;42.30;17.70;;;;;;5020615;28;20104;-74
2022/07/21 12:36:09;;;;;;;5.32;2.30;;;42.30;17.60;;;;;;5022139;28;20052;-73
2022/07/21 12:38:40;;;;;;;5.75;1.95;;;42.00;17.90;;;;;;5018903;28;20022;-73
2022/07/21 12:41:07;;;;;;;6.80;2.72;;;42.70;17.10;;;;;;5025418;28;20029;-73
2022/07/21 12:43:34;;;;;;;4.63;1.88;;;43.60;16.40;;;;;;5024877;28;20021;-74
2022/07/21 12:46:18;;;;;;;5.78;1.98;;;44.40;16.10;;;;;;5026659;28;20520;-73
2022/07/21 12:48:44;;;;;;;5.00;1.80;;;43.90;16.50;;;;;;5024344;28;20405;-74
2022/07/21 12:51:14;;;;;;;6.88;1.90;;;43.00;17.10;;;;;;5026802;28;20052;-73